Time,TemperatureF,DewpointF,PressureIn,WindDirection,WindDirectionDegrees,WindSpeedMPH,WindSpeedGustMPH,Humidity,HourlyPrecipIn,Conditions,Clouds,dailyrainin,SolarRadiationWatts/m^2,SoftwareType,DateUTC
2013-04-29 00:00:00,54.8,44.8,29.97,SSE,158,10.6,17.3,69,0.00,OVC,,0.07,0.0,WeatherDisplay:10.37,2013-04-29 04:00:00,
2013-04-29 00:01:00,54.8,44.8,29.97,SE,145,9.0,17.3,69,0.00,RA,OVC,0.00,0.0,WeatherDisplay:10.37,2013-04-29 04:01:00,
2013-04-29 00:02:00,54.8,44.8,29.97,SSE,149,10.2,19.6,69,0.00,RA,OVC,0.00,0.0,WeatherDisplay:10.37,2013-04-29 04:02:00,
2013-04-29 00:07:00,54.8,44.8,29.97,SSE,165,7.8,11.5,69,0.00,RA,OVC,0.00,0.0,WeatherDisplay:10.37,2013-04-29 04:07:00,
2013-04-29 00:12:00,54.8,44.8,29.97,South,173,9.0,16.1,69,0.00,OVC,,0.00,0.0,WeatherDisplay:10.37,2013-04-29 04:12:00,
2013-04-29 00:17:00,54.9,44.9,29.97,South,173,6.2,17.3,69,0.00,OVC,,0.00,0.0,WeatherDisplay:10.37,2013-04-29 04:17:00,
2013-04-29 00:22:00,54.9,44.9,29.97,SSE,153,4.9,17.3,69,0.00,OVC,,0.00,0.0,WeatherDisplay:10.37,2013-04-29 04:22:00,
2013-04-29 00:27:00,54.9,44.9,29.97,South,179,8.6,15.0,69,0.00,OVC,,0.00,0.0,WeatherDisplay:10.37,2013-04-29 04:27:00,
2013-04-29 00:32:00,54.9,44.9,29.97,South,185,16.4,21.0,69,0.00,OVC,,0.00,0.0,WeatherDisplay:10.37,2013-04-29 04:32:00,
2013-04-29 00:37:00,54.9,45.3,29.97,SSE,160,5.9,12.0,70,0.00,OVC,,0.01,0.0,WeatherDisplay:10.37,2013-04-29 04:37:00,
2013-04-29 00:42:00,54.5,45.7,29.97,SSE,152,6.8,19.6,72,0.01,RA,OVC,0.01,0.0,WeatherDisplay:10.37,2013-04-29 04:42:00,
2013-04-29 00:47:00,54.1,45.6,29.97,SSE,165,7.1,17.3,73,0.01,RA,OVC,0.01,0.0,WeatherDisplay:10.37,2013-04-29 04:47:00,
2013-04-29 00:52:00,53.7,45.6,29.97,South,174,9.4,19.0,74,0.01,OVC,,0.01,0.0,WeatherDisplay:10.37,2013-04-29 04:52:00,
2013-04-29 00:57:00,53.6,45.5,29.97,South,186,5.3,15.0,74,0.01,OVC,,0.01,0.0,WeatherDisplay:10.37,2013-04-29 04:57:00,
2013-04-29 01:02:00,53.5,45.8,29.96,South,178,10.3,17.0,75,0.01,OVC,,0.01,0.0,WeatherDisplay:10.37,2013-04-29 05:02:00,
2013-04-29 01:07:00,53.3,45.6,29.97,SSE,162,12.8,19.6,75,0.02,-RA,OVC,0.02,0.0,WeatherDisplay:10.37,2013-04-29 05:07:00,
2013-04-29 01:12:00,53.1,45.7,29.96,SSE,168,6.3,16.1,76,0.02,-RA,OVC,0.02,0.0,WeatherDisplay:10.37,2013-04-29 05:12:00,
2013-04-29 01:17:00,53.0,45.6,29.96,SSE,152,8.3,23.0,76,0.02,-RA,OVC,0.02,0.0,WeatherDisplay:10.37,2013-04-29 05:17:00,
2013-04-29 01:22:00,52.9,45.5,29.96,SSE,153,11.2,22.0,76,0.02,-RA,OVC,0.02,0.0,WeatherDisplay:10.37,2013-04-29 05:22:00,
2013-04-29 01:27:00,52.9,45.5,29.96,South,172,5.9,11.0,76,0.02,-RA,OVC,0.02,0.0,WeatherDisplay:10.37,2013-04-29 05:27:00,
2013-04-29 01:32:00,52.8,45.4,29.96,SSE,163,9.6,20.7,76,0.02,-RA,OVC,0.02,0.0,WeatherDisplay:10.37,2013-04-29 05:32:00,
2013-04-29 01:37:00,52.8,45.8,29.96,SSW,202,8.6,16.0,77,0.02,-RA,OVC,0.02,0.0,WeatherDisplay:10.37,2013-04-29 05:37:00,
2013-04-29 01:42:00,52.6,45.9,29.96,SSE,159,10.5,22.0,78,0.01,-RA,OVC,0.02,0.0,WeatherDisplay:10.37,2013-04-29 05:42:00,
2013-04-29 01:47:00,52.4,46.1,29.96,SSE,159,5.9,15.0,79,0.02,-RA,OVC,0.03,0.0,WeatherDisplay:10.37,2013-04-29 05:47:00,
2013-04-29 01:52:00,52.2,46.2,29.95,SSE,153,7.8,12.0,80,0.02,-RA,OVC,0.03,0.0,WeatherDisplay:10.37,2013-04-29 05:52:00,
2013-04-29 01:57:00,52.0,46.0,29.95,SSE,159,12.3,20.0,80,0.02,-RA,OVC,0.03,0.0,WeatherDisplay:10.37,2013-04-29 05:57:00,
2013-04-29 02:02:00,51.9,45.9,29.95,South,175,7.8,18.4,80,0.02,OVC,,0.03,0.0,WeatherDisplay:10.37,2013-04-29 06:02:00,
2013-04-29 02:07:00,51.8,45.8,29.95,SSE,157,9.0,17.3,80,0.01,OVC,,0.03,0.0,WeatherDisplay:10.37,2013-04-29 06:07:00,
2013-04-29 02:12:00,51.7,46.1,29.95,South,171,6.6,16.1,81,0.01,OVC,,0.03,0.0,WeatherDisplay:10.37,2013-04-29 06:12:00,
2013-04-29 02:17:00,51.7,46.1,29.95,SE,140,9.0,17.0,81,0.01,OVC,,0.03,0.0,WeatherDisplay:10.37,2013-04-29 06:17:00,
2013-04-29 02:22:00,51.6,46.0,29.95,SSE,163,7.2,16.1,81,0.01,OVC,,0.03,0.0,WeatherDisplay:10.37,2013-04-29 06:22:00,
2013-04-29 02:27:00,51.6,46.0,29.95,South,175,11.7,17.3,81,0.01,OVC,,0.03,0.0,WeatherDisplay:10.37,2013-04-29 06:27:00,
2013-04-29 02:32:00,51.6,46.0,29.95,SSE,159,6.9,14.0,81,0.01,OVC,,0.03,0.0,WeatherDisplay:10.37,2013-04-29 06:32:00,
2013-04-29 02:37:00,51.6,46.0,29.95,SSE,148,5.1,13.0,81,0.01,OVC,,0.03,0.0,WeatherDisplay:10.37,2013-04-29 06:37:00,
2013-04-29 02:42:00,51.5,45.9,29.95,SE,140,7.8,13.0,81,0.01,OVC,,0.03,0.0,WeatherDisplay:10.37,2013-04-29 06:42:00,
2013-04-29 02:47:00,51.5,45.9,29.94,South,169,4.7,15.0,81,0.00,OVC,,0.03,0.0,WeatherDisplay:10.37,2013-04-29 06:47:00,
2013-04-29 02:52:00,51.5,45.5,29.94,SSE,165,9.6,15.0,80,0.00,OVC,,0.03,0.0,WeatherDisplay:10.37,2013-04-29 06:52:00,
2013-04-29 02:57:00,51.5,45.5,29.94,South,182,8.7,14.0,80,0.00,OVC,,0.03,0.0,WeatherDisplay:10.37,2013-04-29 06:57:00,
2013-04-29 03:02:00,51.6,45.6,29.94,SSE,158,5.1,11.5,80,0.00, +RA,OVC,0.03,0.0,WeatherDisplay:10.37,2013-04-29 07:02:00,
2013-04-29 03:07:00,51.6,45.3,29.94,SSE,166,6.4,11.5,79,0.00, +RA,OVC,0.03,0.0,WeatherDisplay:10.37,2013-04-29 07:07:00,
2013-04-29 03:12:00,51.7,45.4,29.94,SSE,155,11.6,16.1,79,0.00, +RA,OVC,0.03,0.0,WeatherDisplay:10.37,2013-04-29 07:12:00,
2013-04-29 03:17:00,51.8,45.5,29.94,SSE,166,9.1,16.1,79,0.00, +RA,OVC,0.03,0.0,WeatherDisplay:10.37,2013-04-29 07:17:00,
2013-04-29 03:22:00,51.8,45.5,29.94,SSE,165,6.4,13.8,79,0.00, +RA,OVC,0.03,0.0,WeatherDisplay:10.37,2013-04-29 07:22:00,
2013-04-29 03:27:00,51.9,45.6,29.94,SSE,156,9.0,14.0,79,0.00, +RA,OVC,0.03,0.0,WeatherDisplay:10.37,2013-04-29 07:27:00,
2013-04-29 03:32:00,51.9,45.3,29.94,SSE,163,6.1,11.5,78,0.00, +RA,OVC,0.03,0.0,WeatherDisplay:10.37,2013-04-29 07:32:00,
2013-04-29 03:37:00,51.9,45.3,29.94,SSE,155,7.1,18.4,78,0.00, +RA,OVC,0.04,0.0,WeatherDisplay:10.37,2013-04-29 07:37:00,
2013-04-29 03:42:00,52.0,45.4,29.94,SSW,194,7.0,13.8,78,0.01, +RA,OVC,0.04,0.0,WeatherDisplay:10.37,2013-04-29 07:42:00,
2013-04-29 03:47:00,52.2,45.5,29.94,SSE,162,9.6,12.0,78,0.01, +RA,OVC,0.04,0.0,WeatherDisplay:10.37,2013-04-29 07:47:00,
2013-04-29 03:52:00,52.2,45.5,29.94,SSE,158,5.6,17.3,78,0.01, +RA,OVC,0.04,0.0,WeatherDisplay:10.37,2013-04-29 07:52:00,
2013-04-29 03:57:00,52.2,45.5,29.93,SSE,166,7.5,14.0,78,0.01, +RA,OVC,0.04,0.0,WeatherDisplay:10.37,2013-04-29 07:57:00,
2013-04-29 04:02:00,52.2,45.5,29.93,SSE,160,4.1,8.1,78,0.01,OVC,,0.04,0.0,WeatherDisplay:10.37,2013-04-29 08:02:00,
2013-04-29 04:07:00,52.3,45.3,29.93,SSE,150,7.8,13.0,77,0.01,OVC,,0.04,0.0,WeatherDisplay:10.37,2013-04-29 08:07:00,
2013-04-29 04:12:00,52.4,45.4,29.93,South,178,2.9,11.5,77,0.01,OVC,,0.04,0.0,WeatherDisplay:10.37,2013-04-29 08:12:00,
2013-04-29 04:17:00,52.5,45.5,29.94,SSE,167,6.3,16.1,77,0.01,OVC,,0.04,0.0,WeatherDisplay:10.37,2013-04-29 08:17:00,
2013-04-29 04:22:00,52.6,45.2,29.94,SSE,165,8.1,15.0,76,0.01,OVC,,0.04,0.0,WeatherDisplay:10.37,2013-04-29 08:22:00,
2013-04-29 04:27:00,52.8,45.4,29.94,SSE,155,8.3,12.0,76,0.01,OVC,,0.04,0.0,WeatherDisplay:10.37,2013-04-29 08:27:00,
2013-04-29 04:32:00,52.9,45.5,29.94,SSE,164,5.4,10.4,76,0.01,OVC,,0.04,0.0,WeatherDisplay:10.37,2013-04-29 08:32:00,
2013-04-29 04:37:00,53.0,45.3,29.94,SSE,163,6.1,16.1,75,0.01,OVC,,0.04,0.0,WeatherDisplay:10.37,2013-04-29 08:37:00,
2013-04-29 04:42:00,53.2,45.1,29.94,SSE,155,7.8,12.0,74,0.00,OVC,,0.04,0.0,WeatherDisplay:10.37,2013-04-29 08:42:00,
2013-04-29 04:47:00,53.3,45.2,29.94,SSE,155,2.2,13.8,74,0.00,OVC,,0.04,0.0,WeatherDisplay:10.37,2013-04-29 08:47:00,
2013-04-29 04:52:00,53.3,45.2,29.95,SSE,160,4.2,10.4,74,0.00,OVC,,0.04,0.0,WeatherDisplay:10.37,2013-04-29 08:52:00,
2013-04-29 04:57:00,53.4,45.3,29.95,SSE,152,1.6,9.2,74,0.00,OVC,,0.04,0.0,WeatherDisplay:10.37,2013-04-29 08:57:00,
2013-04-29 05:02:00,53.4,45.3,29.95,SSE,149,3.4,6.0,74,0.00,OVC,,0.04,0.0,WeatherDisplay:10.37,2013-04-29 09:02:00,
2013-04-29 05:07:00,53.4,45.0,29.94,SSE,168,2.7,8.1,73,0.00,OVC,,0.04,0.0,WeatherDisplay:10.37,2013-04-29 09:07:00,
2013-04-29 05:12:00,53.5,45.1,29.95,SSE,164,3.2,10.4,73,0.00,OVC,,0.04,0.0,WeatherDisplay:10.37,2013-04-29 09:12:00,
2013-04-29 05:17:00,53.6,45.2,29.95,SSW,196,2.0,9.2,73,0.00,OVC,,0.04,0.0,WeatherDisplay:10.37,2013-04-29 09:17:00,
2013-04-29 05:22:00,53.7,45.2,29.95,SSW,196,3.7,6.0,73,0.00,OVC,,0.04,0.0,WeatherDisplay:10.37,2013-04-29 09:22:00,
2013-04-29 05:27:00,53.7,45.2,29.95,South,169,3.1,10.0,73,0.00,OVC,,0.04,0.0,WeatherDisplay:10.37,2013-04-29 09:27:00,
2013-04-29 05:32:00,53.7,45.2,29.95,South,171,0.0,4.6,73,0.00,OVC,,0.04,0.0,WeatherDisplay:10.37,2013-04-29 09:32:00,
2013-04-29 05:37:00,53.7,45.2,29.95,South,171,3.2,6.0,73,0.00,OVC,,0.04,0.0,WeatherDisplay:10.37,2013-04-29 09:37:00,
2013-04-29 05:42:00,53.8,45.3,29.95,SSE,164,0.9,9.2,73,0.00,OVC,,0.04,0.0,WeatherDisplay:10.37,2013-04-29 09:42:00,
2013-04-29 05:47:00,53.8,45.3,29.95,SSE,164,2.0,4.0,73,0.00,OVC,,0.04,0.0,WeatherDisplay:10.37,2013-04-29 09:47:00,
2013-04-29 05:52:00,53.8,45.0,29.95,South,171,8.5,13.8,72,0.00,OVC,,0.04,0.0,WeatherDisplay:10.37,2013-04-29 09:52:00,
2013-04-29 05:57:00,53.9,45.1,29.95,SSE,159,6.0,14.0,72,0.00,OVC,,0.04,0.0,WeatherDisplay:10.37,2013-04-29 09:57:00,
2013-04-29 06:02:00,54.0,45.2,29.95,SSE,156,4.7,8.1,72,0.00,OVC,,0.04,0.0,WeatherDisplay:10.37,2013-04-29 10:02:00,
2013-04-29 06:07:00,54.0,45.5,29.95,SSE,155,5.8,13.8,73,0.00,OVC,,0.04,0.0,WeatherDisplay:10.37,2013-04-29 10:07:00,
2013-04-29 06:12:00,53.8,46.1,29.95,SE,139,2.1,6.9,75,0.00,OVC,,0.04,0.0,WeatherDisplay:10.37,2013-04-29 10:12:00,
2013-04-29 06:17:00,53.5,46.1,29.95,SE,136,3.0,6.9,76,0.00,OVC,,0.04,0.0,WeatherDisplay:10.37,2013-04-29 10:17:00,
2013-04-29 06:22:00,53.2,45.8,29.96,SE,136,2.1,4.0,76,0.00,OVC,,0.04,0.0,WeatherDisplay:10.37,2013-04-29 10:22:00,
2013-04-29 06:27:00,53.0,45.6,29.96,SE,136,1.5,4.0,76,0.00,OVC,,0.04,0.0,WeatherDisplay:10.37,2013-04-29 10:27:00,
2013-04-29 06:32:00,52.9,45.5,29.96,SE,140,0.0,8.1,76,0.00,OVC,,0.04,0.0,WeatherDisplay:10.37,2013-04-29 10:32:00,
2013-04-29 06:37:00,52.8,45.4,29.96,SE,140,0.5,2.0,76,0.00,OVC,,0.04,0.0,WeatherDisplay:10.37,2013-04-29 10:37:00,
2013-04-29 06:42:00,52.7,45.3,29.97,SE,140,1.0,6.9,76,0.00,OVC,,0.04,5.0,WeatherDisplay:10.37,2013-04-29 10:42:00,
2013-04-29 06:47:00,52.7,45.3,29.97,SE,140,1.5,3.5,76,0.00,OVC,,0.04,11.0,WeatherDisplay:10.37,2013-04-29 10:47:00,
2013-04-29 06:52:00,52.8,45.4,29.97,SE,140,2.1,4.6,76,0.00,OVC,,0.04,23.0,WeatherDisplay:10.37,2013-04-29 10:52:00,
2013-04-29 06:57:00,52.8,45.4,29.97,SE,139,2.3,5.0,76,0.00,OVC,,0.04,32.0,WeatherDisplay:10.37,2013-04-29 10:57:00,
2013-04-29 07:02:00,52.9,45.2,29.97,SE,141,0.6,8.1,75,0.00,OVC,,0.04,35.0,WeatherDisplay:10.37,2013-04-29 11:02:00,
2013-04-29 07:07:00,53.0,45.3,29.96,SE,141,1.6,4.6,75,0.00,OVC,,0.04,32.0,WeatherDisplay:10.37,2013-04-29 11:07:00,
2013-04-29 07:12:00,53.1,45.4,29.97,SSE,148,2.4,8.0,75,0.00,OVC,,0.04,30.0,WeatherDisplay:10.37,2013-04-29 11:12:00,
2013-04-29 07:17:00,53.3,45.2,29.97,SE,144,3.2,9.2,74,0.00,OVC,,0.04,23.0,WeatherDisplay:10.37,2013-04-29 11:17:00,
2013-04-29 07:22:00,53.4,45.3,29.97,SSE,167,7.6,11.0,74,0.00,OVC,,0.04,23.0,WeatherDisplay:10.37,2013-04-29 11:22:00,
2013-04-29 07:27:00,53.6,45.2,29.97,South,173,1.3,11.5,73,0.00,OVC,,0.04,25.0,WeatherDisplay:10.37,2013-04-29 11:27:00,
2013-04-29 07:32:00,53.7,45.2,29.97,SSE,161,3.4,7.0,73,0.00,OVC,,0.04,28.0,WeatherDisplay:10.37,2013-04-29 11:32:00,
2013-04-29 07:37:00,53.7,45.6,29.97,SSE,161,2.8,5.0,74,0.00,OVC,,0.04,30.0,WeatherDisplay:10.37,2013-04-29 11:37:00,
2013-04-29 07:42:00,53.8,45.3,29.97,SSE,165,2.9,5.8,73,0.00,OVC,,0.04,39.0,WeatherDisplay:10.37,2013-04-29 11:42:00,
2013-04-29 07:47:00,53.9,45.4,29.98,SSE,161,2.5,6.9,73,0.00,OVC,,0.04,39.0,WeatherDisplay:10.37,2013-04-29 11:47:00,
2013-04-29 07:52:00,53.9,45.4,29.98,SSE,161,3.4,8.1,73,0.00,OVC,,0.04,44.0,WeatherDisplay:10.37,2013-04-29 11:52:00,
2013-04-29 07:57:00,53.9,45.4,29.98,SSE,161,3.7,8.1,73,0.00,OVC,,0.04,47.0,WeatherDisplay:10.37,2013-04-29 11:57:00,
2013-04-29 08:02:00,54.0,45.5,29.98,SSE,162,5.4,10.4,73,0.00,BKN,OVC,0.04,54.0,WeatherDisplay:10.37,2013-04-29 12:02:00,
2013-04-29 08:07:00,54.1,45.6,29.98,SSE,162,0.9,4.6,73,0.00,BKN,OVC,0.04,70.0,WeatherDisplay:10.37,2013-04-29 12:07:00,
2013-04-29 08:12:00,54.2,45.7,29.98,SSE,162,1.0,4.6,73,0.00,BKN,OVC,0.04,105.0,WeatherDisplay:10.37,2013-04-29 12:12:00,
2013-04-29 08:17:00,54.3,46.2,29.98,SSE,162,2.1,6.9,74,0.00,BKN,OVC,0.04,118.0,WeatherDisplay:10.37,2013-04-29 12:17:00,
2013-04-29 08:22:00,54.5,46.4,29.98,SSE,156,3.4,10.4,74,0.00,BKN,OVC,0.04,174.0,WeatherDisplay:10.37,2013-04-29 12:22:00,
2013-04-29 08:27:00,54.9,46.8,29.98,South,186,10.2,19.0,74,0.00,BKN,OVC,0.04,192.0,WeatherDisplay:10.37,2013-04-29 12:27:00,
2013-04-29 08:32:00,55.5,47.0,29.98,South,181,5.4,10.4,73,0.00,BKN,OVC,0.04,183.0,WeatherDisplay:10.37,2013-04-29 12:32:00,
2013-04-29 08:37:00,55.9,47.0,29.98,South,170,7.9,18.4,72,0.00,BKN,OVC,0.04,202.0,WeatherDisplay:10.37,2013-04-29 12:37:00,
2013-04-29 08:42:00,56.3,47.0,29.98,South,172,6.5,16.1,71,0.00,BKN,OVC,0.04,211.0,WeatherDisplay:10.37,2013-04-29 12:42:00,
2013-04-29 08:47:00,56.6,47.7,29.97,South,180,4.2,9.2,72,0.00,BKN,OVC,0.04,185.0,WeatherDisplay:10.37,2013-04-29 12:47:00,
2013-04-29 08:52:00,56.7,47.4,29.98,SW,221,6.0,10.4,71,0.00,BKN,OVC,0.04,167.0,WeatherDisplay:10.37,2013-04-29 12:52:00,
2013-04-29 08:57:00,56.8,47.5,29.98,South,191,7.2,13.8,71,0.00,BKN,OVC,0.04,171.0,WeatherDisplay:10.37,2013-04-29 12:57:00,
2013-04-29 09:02:00,56.8,47.5,29.98,South,186,8.6,17.3,71,0.00,BKN,OVC,0.04,207.0,WeatherDisplay:10.37,2013-04-29 13:02:00,
2013-04-29 09:07:00,56.9,48.0,29.98,South,175,9.2,14.0,72,0.00,-RA,OVC,0.04,388.0,WeatherDisplay:10.37,2013-04-29 13:07:00,
2013-04-29 09:12:00,57.1,48.2,29.98,SSE,167,12.1,17.3,72,0.00,-RA,OVC,0.04,209.0,WeatherDisplay:10.37,2013-04-29 13:12:00,
2013-04-29 09:17:00,57.1,48.2,29.98,SSW,200,7.6,15.0,72,0.00,-RA,OVC,0.04,250.0,WeatherDisplay:10.37,2013-04-29 13:17:00,
2013-04-29 09:22:00,57.1,48.5,29.98,SSW,193,5.8,16.1,73,0.00,-RA,OVC,0.04,257.0,WeatherDisplay:10.37,2013-04-29 13:22:00,
2013-04-29 09:27:00,57.2,48.6,29.98,SSW,213,10.1,16.1,73,0.00,-RA,OVC,0.04,204.0,WeatherDisplay:10.37,2013-04-29 13:27:00,
2013-04-29 09:32:00,57.2,48.6,29.98,SSW,212,6.9,19.6,73,0.00,-RA,OVC,0.04,176.0,WeatherDisplay:10.37,2013-04-29 13:32:00,
2013-04-29 09:37:00,57.2,48.6,29.98,South,187,10.7,18.4,73,0.00,-RA,OVC,0.04,178.0,WeatherDisplay:10.37,2013-04-29 13:37:00,
2013-04-29 09:42:00,57.0,48.4,29.98,SE,127,11.1,18.0,73,0.00,OVC,,0.04,158.0,WeatherDisplay:10.37,2013-04-29 13:42:00,
2013-04-29 09:47:00,56.9,48.7,29.98,SSW,194,5.0,14.0,74,0.00,OVC,,0.04,190.0,WeatherDisplay:10.37,2013-04-29 13:47:00,
2013-04-29 09:52:00,56.8,48.6,29.98,South,182,7.5,17.3,74,0.00,OVC,,0.04,171.0,WeatherDisplay:10.37,2013-04-29 13:52:00,
2013-04-29 09:57:00,56.7,48.5,29.98,SSE,166,6.3,19.6,74,0.00,OVC,,0.04,153.0,WeatherDisplay:10.37,2013-04-29 13:57:00,
2013-04-29 10:02:00,56.6,48.4,29.98,SSW,202,10.3,20.0,74,0.00,OVC,,0.04,227.0,WeatherDisplay:10.37,2013-04-29 14:02:00,
2013-04-29 10:07:00,56.7,48.9,29.98,South,184,7.9,16.1,75,0.00,OVC,,0.04,257.0,WeatherDisplay:10.37,2013-04-29 14:07:00,
2013-04-29 10:12:00,57.0,48.8,29.98,South,181,3.0,8.1,74,0.00,OVC,,0.04,206.0,WeatherDisplay:10.37,2013-04-29 14:12:00,
2013-04-29 10:17:00,57.2,49.0,29.98,South,171,9.1,17.3,74,0.00,OVC,,0.04,193.0,WeatherDisplay:10.37,2013-04-29 14:17:00,
2013-04-29 10:22:00,57.4,48.8,29.98,South,188,7.2,19.6,73,0.00,OVC,,0.04,178.0,WeatherDisplay:10.37,2013-04-29 14:22:00,
2013-04-29 10:27:00,57.5,48.5,29.98,South,180,6.1,19.6,72,0.00,OVC,,0.04,174.0,WeatherDisplay:10.37,2013-04-29 14:27:00,
2013-04-29 10:32:00,57.7,48.7,29.98,South,171,2.8,9.2,72,0.00,OVC,,0.04,151.0,WeatherDisplay:10.37,2013-04-29 14:32:00,
2013-04-29 10:37:00,57.8,48.8,29.98,South,179,4.9,11.5,72,0.00,OVC,,0.04,163.0,WeatherDisplay:10.37,2013-04-29 14:37:00,
2013-04-29 10:42:00,58.1,49.9,29.98,South,182,5.5,10.4,74,0.00,OVC,,0.04,207.0,WeatherDisplay:10.37,2013-04-29 14:42:00,
2013-04-29 10:47:00,58.3,49.3,29.98,South,186,2.6,4.0,72,0.00,OVC,,0.04,206.0,WeatherDisplay:10.37,2013-04-29 14:47:00,
2013-04-29 10:52:00,58.6,49.2,29.98,South,186,1.6,8.1,71,0.00,OVC,,0.04,218.0,WeatherDisplay:10.37,2013-04-29 14:52:00,
2013-04-29 10:57:00,59.0,49.6,29.98,SW,222,8.8,12.0,71,0.00,OVC,,0.04,195.0,WeatherDisplay:10.37,2013-04-29 14:57:00,
2013-04-29 11:02:00,59.3,49.5,29.98,South,184,5.1,12.7,70,0.00,OVC,,0.04,237.0,WeatherDisplay:10.37,2013-04-29 15:02:00,
2013-04-29 11:07:00,59.5,49.7,29.98,SSE,163,6.3,13.8,70,0.00,OVC,,0.04,225.0,WeatherDisplay:10.37,2013-04-29 15:07:00,
2013-04-29 11:12:00,59.6,49.4,29.98,South,178,5.9,15.0,69,0.00,OVC,,0.04,269.0,WeatherDisplay:10.37,2013-04-29 15:12:00,
2013-04-29 11:17:00,59.9,49.7,29.98,South,186,8.5,15.0,69,0.00,OVC,,0.04,206.0,WeatherDisplay:10.37,2013-04-29 15:17:00,
2013-04-29 11:22:00,60.0,49.4,29.98,South,183,4.2,8.1,68,0.00,OVC,,0.04,216.0,WeatherDisplay:10.37,2013-04-29 15:22:00,
2013-04-29 11:27:00,60.1,49.5,29.98,SW,215,4.9,10.0,68,0.00,OVC,,0.04,211.0,WeatherDisplay:10.37,2013-04-29 15:27:00,
2013-04-29 11:32:00,60.2,49.6,29.98,South,179,9.5,17.3,68,0.00,OVC,,0.04,195.0,WeatherDisplay:10.37,2013-04-29 15:32:00,
2013-04-29 11:37:00,60.3,50.1,29.98,South,186,5.9,10.4,69,0.00,OVC,,0.04,207.0,WeatherDisplay:10.37,2013-04-29 15:37:00,
2013-04-29 11:42:00,60.4,49.8,29.98,SSW,200,8.8,14.0,68,0.00,OVC,,0.04,276.0,WeatherDisplay:10.37,2013-04-29 15:42:00,
2013-04-29 11:47:00,60.6,50.0,29.98,SSE,161,10.9,17.0,68,0.00,OVC,,0.04,439.0,WeatherDisplay:10.37,2013-04-29 15:47:00,
2013-04-29 11:52:00,60.9,50.3,29.98,SSE,160,10.8,15.0,68,0.00,OVC,,0.04,545.0,WeatherDisplay:10.37,2013-04-29 15:52:00,
2013-04-29 11:57:00,61.5,50.4,29.98,SSW,192,7.4,13.0,67,0.00,OVC,,0.04,606.0,WeatherDisplay:10.37,2013-04-29 15:57:00,
2013-04-29 12:02:00,62.2,50.7,29.98,South,191,6.6,14.0,66,0.00,OVC,,0.04,608.0,WeatherDisplay:10.37,2013-04-29 16:02:00,
2013-04-29 12:07:00,62.7,50.8,29.98,SSW,207,7.9,12.7,65,0.00,OVC,,0.04,489.0,WeatherDisplay:10.37,2013-04-29 16:07:00,
2013-04-29 12:12:00,62.9,50.5,29.98,South,190,2.0,9.2,64,0.00,OVC,,0.04,360.0,WeatherDisplay:10.37,2013-04-29 16:12:00,
2013-04-29 12:17:00,63.3,51.3,29.98,SSW,192,4.2,8.0,65,0.00,OVC,,0.04,381.0,WeatherDisplay:10.37,2013-04-29 16:17:00,
2013-04-29 12:22:00,63.5,51.1,29.98,South,189,4.9,8.1,64,0.00,OVC,,0.04,339.0,WeatherDisplay:10.37,2013-04-29 16:22:00,
2013-04-29 12:27:00,63.7,50.9,29.98,SSW,209,5.3,13.8,63,0.00,OVC,,0.04,441.0,WeatherDisplay:10.37,2013-04-29 16:27:00,
2013-04-29 12:32:00,63.9,51.5,29.98,SSW,210,3.5,6.9,64,0.00,OVC,,0.04,425.0,WeatherDisplay:10.37,2013-04-29 16:32:00,
2013-04-29 12:37:00,64.0,51.1,29.98,SSW,198,3.1,10.4,63,0.00,OVC,,0.04,392.0,WeatherDisplay:10.37,2013-04-29 16:37:00,
2013-04-29 12:42:00,63.9,50.6,29.98,SSW,202,5.6,11.5,62,0.00,OVC,,0.04,504.0,WeatherDisplay:10.37,2013-04-29 16:42:00,
2013-04-29 12:47:00,63.9,51.1,29.98,SSE,168,9.0,15.0,63,0.00,OVC,,0.04,1123.0,WeatherDisplay:10.37,2013-04-29 16:47:00,
2013-04-29 12:52:00,64.3,51.0,29.98,South,190,6.1,13.0,62,0.00,OVC,,0.04,981.0,WeatherDisplay:10.37,2013-04-29 16:52:00,
2013-04-29 12:57:00,65.1,51.8,29.98,SW,219,6.4,12.7,62,0.00,OVC,,0.04,912.0,WeatherDisplay:10.37,2013-04-29 16:57:00,
2013-04-29 13:02:00,65.4,51.6,29.98,SW,226,8.2,16.1,61,0.00,BKN,OVC,0.04,610.0,WeatherDisplay:10.37,2013-04-29 17:02:00,
2013-04-29 13:07:00,65.6,51.8,29.98,SSW,196,6.7,12.0,61,0.00,BKN,OVC,0.04,411.0,WeatherDisplay:10.37,2013-04-29 17:07:00,
2013-04-29 13:12:00,65.4,51.6,29.98,SW,230,4.4,11.5,61,0.00,BKN,OVC,0.04,339.0,WeatherDisplay:10.37,2013-04-29 17:12:00,
2013-04-29 13:17:00,65.2,51.4,29.97,SSE,157,5.1,15.0,61,0.00,BKN,OVC,0.04,304.0,WeatherDisplay:10.37,2013-04-29 17:17:00,
2013-04-29 13:22:00,65.1,51.3,29.97,SSE,156,5.1,9.2,61,0.00,BKN,OVC,0.04,213.0,WeatherDisplay:10.37,2013-04-29 17:22:00,
2013-04-29 13:27:00,65.0,51.7,29.97,SSW,213,4.9,9.2,62,0.00,BKN,OVC,0.04,227.0,WeatherDisplay:10.37,2013-04-29 17:27:00,
2013-04-29 13:32:00,64.9,51.6,29.97,SSW,208,4.7,8.0,62,0.00,BKN,OVC,0.04,290.0,WeatherDisplay:10.37,2013-04-29 17:32:00,
2013-04-29 13:37:00,64.8,51.5,29.97,SW,215,2.9,11.5,62,0.00,BKN,OVC,0.04,359.0,WeatherDisplay:10.37,2013-04-29 17:37:00,
2013-04-29 13:42:00,64.8,51.5,29.98,South,189,6.6,13.8,62,0.00,BKN,OVC,0.04,308.0,WeatherDisplay:10.37,2013-04-29 17:42:00,
2013-04-29 13:47:00,64.8,51.5,29.98,WSW,254,5.3,11.5,62,0.00,BKN,OVC,0.04,257.0,WeatherDisplay:10.37,2013-04-29 17:47:00,
2013-04-29 13:52:00,64.8,51.5,29.98,South,180,6.7,12.0,62,0.00,BKN,OVC,0.04,306.0,WeatherDisplay:10.37,2013-04-29 17:52:00,
2013-04-29 13:57:00,64.9,51.1,29.98,South,171,7.9,17.3,61,0.00,BKN,OVC,0.04,439.0,WeatherDisplay:10.37,2013-04-29 17:57:00,
2013-04-29 14:02:00,65.0,52.1,29.97,SW,236,3.7,10.0,63,0.00,OVC,,0.04,605.0,WeatherDisplay:10.37,2013-04-29 18:02:00,
2013-04-29 14:07:00,65.5,52.1,29.97,SSW,210,3.5,10.4,62,0.00,OVC,,0.04,663.0,WeatherDisplay:10.37,2013-04-29 18:07:00,
2013-04-29 14:12:00,66.1,52.3,29.97,SW,216,6.2,11.5,61,0.00,OVC,,0.04,320.0,WeatherDisplay:10.37,2013-04-29 18:12:00,
2013-04-29 14:17:00,66.2,51.9,29.98,South,174,7.3,13.0,60,0.00,OVC,,0.04,195.0,WeatherDisplay:10.37,2013-04-29 18:17:00,
2013-04-29 14:22:00,65.9,51.6,29.98,SW,223,2.3,9.2,60,0.00,OVC,,0.04,141.0,WeatherDisplay:10.37,2013-04-29 18:22:00,
2013-04-29 14:27:00,65.6,51.3,29.98,SSW,200,4.6,9.2,60,0.00,OVC,,0.04,104.0,WeatherDisplay:10.37,2013-04-29 18:27:00,
2013-04-29 14:32:00,65.3,51.5,29.98,SSW,202,3.7,6.0,61,0.00,OVC,,0.04,90.0,WeatherDisplay:10.37,2013-04-29 18:32:00,
2013-04-29 14:37:00,65.2,51.4,29.98,SSW,202,3.1,4.6,61,0.00,OVC,,0.04,98.0,WeatherDisplay:10.37,2013-04-29 18:37:00,
2013-04-29 14:42:00,65.0,51.7,29.98,South,190,0.4,5.8,62,0.00,OVC,,0.04,113.0,WeatherDisplay:10.37,2013-04-29 18:42:00,
2013-04-29 14:47:00,64.8,51.5,29.98,South,170,4.1,10.4,62,0.00,OVC,,0.04,153.0,WeatherDisplay:10.37,2013-04-29 18:47:00,
2013-04-29 14:52:00,64.6,51.3,29.98,SSE,165,5.1,12.7,62,0.00,OVC,,0.04,165.0,WeatherDisplay:10.37,2013-04-29 18:52:00,
2013-04-29 14:57:00,64.3,51.4,29.98,South,173,7.0,12.0,63,0.00,OVC,,0.04,153.0,WeatherDisplay:10.37,2013-04-29 18:57:00,
2013-04-29 15:02:00,64.1,51.7,29.98,South,181,3.0,11.5,64,0.00,OVC,,0.04,162.0,WeatherDisplay:10.37,2013-04-29 19:02:00,
2013-04-29 15:07:00,63.8,51.4,29.98,South,171,5.0,11.0,64,0.00,OVC,,0.04,185.0,WeatherDisplay:10.37,2013-04-29 19:07:00,
2013-04-29 15:12:00,63.6,51.6,29.98,SSE,161,4.1,12.7,65,0.00,OVC,,0.04,236.0,WeatherDisplay:10.37,2013-04-29 19:12:00,
2013-04-29 15:17:00,63.6,51.6,29.98,SSE,165,6.0,11.0,65,0.00,OVC,,0.04,237.0,WeatherDisplay:10.37,2013-04-29 19:17:00,
2013-04-29 15:22:00,63.6,51.6,29.98,South,182,1.5,11.5,65,0.00,OVC,,0.04,269.0,WeatherDisplay:10.37,2013-04-29 19:22:00,
2013-04-29 15:27:00,63.8,51.8,29.97,South,174,5.9,8.0,65,0.00,OVC,,0.04,186.0,WeatherDisplay:10.37,2013-04-29 19:27:00,
2013-04-29 15:32:00,64.0,52.0,29.97,South,180,5.3,7.0,65,0.00,OVC,,0.04,316.0,WeatherDisplay:10.37,2013-04-29 19:32:00,
2013-04-29 15:37:00,64.3,51.9,29.97,South,184,3.9,5.8,64,0.00,OVC,,0.04,330.0,WeatherDisplay:10.37,2013-04-29 19:37:00,
2013-04-29 15:42:00,64.6,52.1,29.97,South,184,2.2,4.0,64,0.00,OVC,,0.04,320.0,WeatherDisplay:10.37,2013-04-29 19:42:00,
2013-04-29 15:47:00,64.8,52.3,29.97,SSE,161,3.2,7.0,64,0.00,OVC,,0.04,297.0,WeatherDisplay:10.37,2013-04-29 19:47:00,
2013-04-29 15:52:00,64.9,52.0,29.97,SSE,160,1.3,6.0,63,0.00,OVC,,0.04,246.0,WeatherDisplay:10.37,2013-04-29 19:52:00,
2013-04-29 15:57:00,65.0,52.1,29.97,SSE,160,5.1,7.0,63,0.00,OVC,,0.04,174.0,WeatherDisplay:10.37,2013-04-29 19:57:00,
2013-04-29 16:02:00,65.2,52.3,29.97,South,173,5.6,9.2,63,0.00,OVC,,0.04,134.0,WeatherDisplay:10.37,2013-04-29 20:02:00,
2013-04-29 16:07:00,65.2,52.3,29.97,SSE,159,5.6,8.1,63,0.00,OVC,,0.04,134.0,WeatherDisplay:10.37,2013-04-29 20:07:00,
2013-04-29 16:12:00,65.2,52.3,29.97,SSE,163,3.8,5.8,63,0.00,OVC,,0.04,127.0,WeatherDisplay:10.37,2013-04-29 20:12:00,
2013-04-29 16:17:00,65.3,52.4,29.97,SSE,163,1.4,4.0,63,0.00,OVC,,0.04,111.0,WeatherDisplay:10.37,2013-04-29 20:17:00,
2013-04-29 16:22:00,65.3,52.4,29.97,SE,141,5.5,10.4,63,0.00,OVC,,0.04,111.0,WeatherDisplay:10.37,2013-04-29 20:22:00,
2013-04-29 16:27:00,65.3,52.4,29.97,South,175,1.5,10.4,63,0.00,OVC,,0.04,97.0,WeatherDisplay:10.37,2013-04-29 20:27:00,
2013-04-29 16:32:00,65.3,51.9,29.97,South,173,3.9,8.1,62,0.00,OVC,,0.04,83.0,WeatherDisplay:10.37,2013-04-29 20:32:00,
2013-04-29 16:37:00,65.2,52.3,29.97,South,171,2.5,7.0,63,0.00,OVC,,0.04,149.0,WeatherDisplay:10.37,2013-04-29 20:37:00,
2013-04-29 16:42:00,65.2,52.3,29.97,SW,220,4.4,9.2,63,0.00,OVC,,0.04,206.0,WeatherDisplay:10.37,2013-04-29 20:42:00,
2013-04-29 16:47:00,65.3,52.4,29.97,SSW,200,5.2,9.2,63,0.00,OVC,,0.04,156.0,WeatherDisplay:10.37,2013-04-29 20:47:00,
2013-04-29 16:52:00,65.3,52.4,29.97,SW,222,2.1,9.2,63,0.00,OVC,,0.04,186.0,WeatherDisplay:10.37,2013-04-29 20:52:00,
2013-04-29 16:57:00,65.4,52.5,29.97,SW,215,3.3,8.0,63,0.00,OVC,,0.04,174.0,WeatherDisplay:10.37,2013-04-29 20:57:00,
2013-04-29 17:02:00,65.4,52.5,29.97,SW,218,4.3,8.1,63,0.00,OVC,,0.04,236.0,WeatherDisplay:10.37,2013-04-29 21:02:00,
2013-04-29 17:07:00,65.4,52.5,29.97,South,188,4.2,8.1,63,0.00,OVC,,0.04,278.0,WeatherDisplay:10.37,2013-04-29 21:07:00,
2013-04-29 17:12:00,65.6,52.7,29.97,SSW,203,5.3,8.1,63,0.00,OVC,,0.04,301.0,WeatherDisplay:10.37,2013-04-29 21:12:00,
2013-04-29 17:17:00,65.7,52.8,29.97,SW,218,2.4,11.5,63,0.00,OVC,,0.04,260.0,WeatherDisplay:10.37,2013-04-29 21:17:00,
2013-04-29 17:22:00,65.8,52.4,29.97,SSW,206,6.6,11.5,62,0.00,OVC,,0.04,174.0,WeatherDisplay:10.37,2013-04-29 21:22:00,
2013-04-29 17:27:00,65.7,52.8,29.97,SSW,208,1.3,4.0,63,0.00,OVC,,0.04,132.0,WeatherDisplay:10.37,2013-04-29 21:27:00,
2013-04-29 17:32:00,65.6,52.2,29.97,SSW,210,3.1,6.9,62,0.00,OVC,,0.04,167.0,WeatherDisplay:10.37,2013-04-29 21:32:00,
2013-04-29 17:37:00,65.4,52.0,29.97,SSW,201,5.4,8.1,62,0.00,OVC,,0.04,160.0,WeatherDisplay:10.37,2013-04-29 21:37:00,
2013-04-29 17:42:00,65.4,52.5,29.97,SSW,202,1.3,5.0,63,0.00,OVC,,0.04,121.0,WeatherDisplay:10.37,2013-04-29 21:42:00,
2013-04-29 17:47:00,65.3,52.4,29.97,SSW,195,3.5,5.0,63,0.00,OVC,,0.04,81.0,WeatherDisplay:10.37,2013-04-29 21:47:00,
2013-04-29 17:52:00,65.2,52.3,29.98,SSE,167,8.2,12.0,63,0.00,OVC,,0.04,77.0,WeatherDisplay:10.37,2013-04-29 21:52:00,
2013-04-29 17:57:00,65.0,52.1,29.97,South,177,3.3,9.2,63,0.00,OVC,,0.04,83.0,WeatherDisplay:10.37,2013-04-29 21:57:00,
2013-04-29 18:02:00,64.7,52.2,29.98,South,174,4.6,11.5,64,0.00,OVC,,0.04,63.0,WeatherDisplay:10.37,2013-04-29 22:02:00,
2013-04-29 18:07:00,64.6,52.1,29.98,South,180,7.4,13.0,64,0.00,OVC,,0.04,65.0,WeatherDisplay:10.37,2013-04-29 22:07:00,
2013-04-29 18:12:00,64.4,52.0,29.98,South,184,4.7,8.1,64,0.00,OVC,,0.04,56.0,WeatherDisplay:10.37,2013-04-29 22:12:00,
2013-04-29 18:17:00,64.1,51.7,29.98,South,184,1.7,5.8,64,0.00,OVC,,0.04,60.0,WeatherDisplay:10.37,2013-04-29 22:17:00,
2013-04-29 18:22:00,64.0,52.0,29.98,South,186,3.2,7.0,65,0.00,OVC,,0.04,53.0,WeatherDisplay:10.37,2013-04-29 22:22:00,
2013-04-29 18:27:00,64.0,52.0,29.98,SSW,192,3.9,9.0,65,0.00,OVC,,0.04,46.0,WeatherDisplay:10.37,2013-04-29 22:27:00,
2013-04-29 18:32:00,63.8,51.8,29.98,South,187,1.8,5.8,65,0.00,OVC,,0.04,30.0,WeatherDisplay:10.37,2013-04-29 22:32:00,
2013-04-29 18:37:00,63.7,51.7,29.98,South,186,3.9,7.0,65,0.00,OVC,,0.04,25.0,WeatherDisplay:10.37,2013-04-29 22:37:00,
2013-04-29 18:42:00,63.5,51.5,29.99,South,184,1.5,8.1,65,0.00,OVC,,0.04,21.0,WeatherDisplay:10.37,2013-04-29 22:42:00,
2013-04-29 18:47:00,63.4,51.4,29.99,SW,215,4.0,7.0,65,0.00,OVC,,0.04,16.0,WeatherDisplay:10.37,2013-04-29 22:47:00,
2013-04-29 18:52:00,63.2,51.6,29.99,SSW,205,2.6,5.0,66,0.00,OVC,,0.04,19.0,WeatherDisplay:10.37,2013-04-29 22:52:00,
2013-04-29 18:57:00,63.1,51.6,29.99,SSW,200,2.8,6.9,66,0.00,OVC,,0.04,19.0,WeatherDisplay:10.37,2013-04-29 22:57:00,
2013-04-29 19:02:00,62.9,51.4,29.99,SSW,205,1.8,4.0,66,0.00,OVC,,0.04,21.0,WeatherDisplay:10.37,2013-04-29 23:02:00,
2013-04-29 19:07:00,62.8,51.3,29.99,South,190,1.2,6.9,66,0.00,OVC,,0.04,28.0,WeatherDisplay:10.37,2013-04-29 23:07:00,
2013-04-29 19:12:00,62.7,51.2,30.00,South,187,3.9,6.0,66,0.00,OVC,,0.04,37.0,WeatherDisplay:10.37,2013-04-29 23:12:00,
2013-04-29 19:17:00,62.6,51.1,30.00,South,178,4.2,8.1,66,0.00,OVC,,0.04,26.0,WeatherDisplay:10.37,2013-04-29 23:17:00,
2013-04-29 19:22:00,62.4,50.9,29.99,South,175,5.9,9.0,66,0.00,OVC,,0.04,19.0,WeatherDisplay:10.37,2013-04-29 23:22:00,
2013-04-29 19:27:00,62.3,50.8,30.00,South,169,5.5,11.5,66,0.00,OVC,,0.04,18.0,WeatherDisplay:10.37,2013-04-29 23:27:00,
2013-04-29 19:33:00,62.1,51.0,30.00,South,171,4.4,7.0,67,0.00,RA,OVC,0.04,21.0,WeatherDisplay:10.37,2013-04-29 23:33:00,
2013-04-29 19:38:00,62.0,50.9,30.00,South,173,3.0,8.1,67,0.00,RA,OVC,0.04,18.0,WeatherDisplay:10.37,2013-04-29 23:38:00,
2013-04-29 19:43:00,61.9,50.8,29.99,South,173,2.3,5.8,67,0.00,OVC,,0.04,18.0,WeatherDisplay:10.37,2013-04-29 23:43:00,
2013-04-29 19:48:00,61.9,50.8,30.00,South,173,0.2,4.6,67,0.00,OVC,,0.04,12.0,WeatherDisplay:10.37,2013-04-29 23:48:00,
2013-04-29 19:53:00,61.8,51.1,30.00,South,172,0.8,5.8,68,0.00,OVC,,0.04,7.0,WeatherDisplay:10.37,2013-04-29 23:53:00,
2013-04-29 19:58:00,61.7,51.0,30.00,South,172,0.3,3.5,68,0.00,OVC,,0.04,0.0,WeatherDisplay:10.37,2013-04-29 23:58:00,
2013-04-29 20:03:00,61.6,50.9,30.00,SSE,165,3.6,9.2,68,0.00,-RA,OVC,0.04,0.0,WeatherDisplay:10.37,2013-04-30 00:03:00,
2013-04-29 20:08:00,61.5,50.8,30.00,South,170,6.6,10.0,68,0.00,-RA,OVC,0.04,0.0,WeatherDisplay:10.37,2013-04-30 00:08:00,
2013-04-29 20:13:00,61.3,50.6,30.00,South,175,3.0,9.2,68,0.00,-RA,OVC,0.04,0.0,WeatherDisplay:10.37,2013-04-30 00:13:00,
2013-04-29 20:18:00,61.2,50.6,30.00,SSE,161,5.0,13.0,68,0.00,-RA,OVC,0.04,0.0,WeatherDisplay:10.37,2013-04-30 00:18:00,
2013-04-29 20:23:00,61.0,50.8,30.01,SSE,161,1.4,8.1,69,0.00,-RA,OVC,0.04,0.0,WeatherDisplay:10.37,2013-04-30 00:23:00,
2013-04-29 20:28:00,60.9,50.7,30.01,SSE,162,1.7,8.1,69,0.00,-RA,OVC,0.04,0.0,WeatherDisplay:10.37,2013-04-30 00:28:00,
2013-04-29 20:33:00,60.8,50.6,30.01,SSE,162,0.3,6.9,69,0.00,-RA,OVC,0.04,0.0,WeatherDisplay:10.37,2013-04-30 00:33:00,
2013-04-29 20:38:00,60.7,50.5,30.01,SSE,163,1.1,6.9,69,0.00,-RA,OVC,0.04,0.0,WeatherDisplay:10.37,2013-04-30 00:38:00,
2013-04-29 20:43:00,60.6,50.8,30.01,SSE,163,1.5,4.6,70,0.00,-RA,OVC,0.04,0.0,WeatherDisplay:10.37,2013-04-30 00:43:00,
2013-04-29 20:48:00,60.5,50.7,30.02,SSE,163,0.9,6.9,70,0.00,-RA,OVC,0.04,0.0,WeatherDisplay:10.37,2013-04-30 00:48:00,
2013-04-29 20:53:00,60.4,50.6,30.02,South,175,2.1,9.2,70,0.00,-RA,OVC,0.04,0.0,WeatherDisplay:10.37,2013-04-30 00:53:00,
2013-04-29 20:58:00,60.3,50.5,30.02,South,174,1.1,6.9,70,0.00,-RA,OVC,0.04,0.0,WeatherDisplay:10.37,2013-04-30 00:58:00,
2013-04-29 21:03:00,60.2,50.4,30.02,South,174,2.1,5.0,70,0.00,OVC,,0.04,0.0,WeatherDisplay:10.37,2013-04-30 01:03:00,
2013-04-29 21:08:00,60.1,50.7,30.02,South,174,2.8,5.0,71,0.00,OVC,,0.04,0.0,WeatherDisplay:10.37,2013-04-30 01:08:00,
2013-04-29 21:13:00,60.0,50.6,30.02,South,175,2.9,7.0,71,0.00,OVC,,0.04,0.0,WeatherDisplay:10.37,2013-04-30 01:13:00,
2013-04-29 21:18:00,60.0,50.6,30.02,South,175,1.1,6.0,71,0.00,OVC,,0.04,0.0,WeatherDisplay:10.37,2013-04-30 01:18:00,
2013-04-29 21:23:00,59.9,50.5,30.02,South,175,0.0,2.3,71,0.00,OVC,,0.04,0.0,WeatherDisplay:10.37,2013-04-30 01:23:00,
2013-04-29 21:28:00,59.9,50.5,30.02,South,175,0.0,3.5,71,0.00,OVC,,0.04,0.0,WeatherDisplay:10.37,2013-04-30 01:28:00,
2013-04-29 21:33:00,59.8,50.4,30.02,South,175,0.2,2.3,71,0.00,OVC,,0.04,0.0,WeatherDisplay:10.37,2013-04-30 01:33:00,
2013-04-29 21:38:00,59.8,50.8,30.02,South,175,0.0,0.0,72,0.00,OVC,,0.04,0.0,WeatherDisplay:10.37,2013-04-30 01:38:00,
2013-04-29 21:43:00,59.7,50.7,30.03,South,175,0.0,1.2,72,0.00,OVC,,0.04,0.0,WeatherDisplay:10.37,2013-04-30 01:43:00,
2013-04-29 21:48:00,59.6,50.6,30.03,South,175,0.1,3.5,72,0.00,OVC,,0.04,0.0,WeatherDisplay:10.37,2013-04-30 01:48:00,
2013-04-29 21:53:00,59.6,50.6,30.03,South,175,0.1,1.0,72,0.00,OVC,,0.04,0.0,WeatherDisplay:10.37,2013-04-30 01:53:00,
2013-04-29 21:58:00,59.5,50.5,30.03,South,175,0.4,4.0,72,0.00,OVC,,0.04,0.0,WeatherDisplay:10.37,2013-04-30 01:58:00,
2013-04-29 22:03:00,59.4,50.4,30.03,South,175,0.0,1.2,72,0.00,OVC,,0.04,0.0,WeatherDisplay:10.37,2013-04-30 02:03:00,
2013-04-29 22:08:00,59.4,50.4,30.03,South,175,0.6,2.3,72,0.00,OVC,,0.04,0.0,WeatherDisplay:10.37,2013-04-30 02:08:00,
2013-04-29 22:13:00,59.3,50.3,30.03,South,175,0.2,3.5,72,0.00,OVC,,0.04,0.0,WeatherDisplay:10.37,2013-04-30 02:13:00,
2013-04-29 22:18:00,59.3,50.3,30.03,South,174,4.6,7.0,72,0.00,OVC,,0.04,0.0,WeatherDisplay:10.37,2013-04-30 02:18:00,
2013-04-29 22:23:00,59.3,50.3,30.03,South,173,0.2,5.8,72,0.00,OVC,,0.04,0.0,WeatherDisplay:10.37,2013-04-30 02:23:00,
2013-04-29 22:28:00,59.2,50.2,30.03,South,171,4.5,9.2,72,0.00,OVC,,0.04,0.0,WeatherDisplay:10.37,2013-04-30 02:28:00,
2013-04-29 22:33:00,59.2,50.2,30.03,SSE,161,3.6,11.0,72,0.00,OVC,,0.04,0.0,WeatherDisplay:10.37,2013-04-30 02:33:00,
2013-04-29 22:38:00,59.2,50.2,30.03,SSE,165,2.2,5.0,72,0.00,OVC,,0.04,0.0,WeatherDisplay:10.37,2013-04-30 02:38:00,
2013-04-29 22:43:00,59.2,50.2,30.03,SSE,164,4.4,9.0,72,0.00,OVC,,0.04,0.0,WeatherDisplay:10.37,2013-04-30 02:43:00,
2013-04-29 22:48:00,59.1,50.1,30.03,SSE,165,3.4,5.0,72,0.00,OVC,,0.04,0.0,WeatherDisplay:10.37,2013-04-30 02:48:00,
2013-04-29 22:53:00,59.1,50.1,30.03,SSE,164,1.2,9.2,72,0.00,OVC,,0.04,0.0,WeatherDisplay:10.37,2013-04-30 02:53:00,
2013-04-29 22:58:00,59.0,50.0,30.03,SSE,164,1.8,5.8,72,0.00,OVC,,0.04,0.0,WeatherDisplay:10.37,2013-04-30 02:58:00,
2013-04-29 23:03:00,59.0,50.0,30.03,SSE,165,0.6,5.8,72,0.00,OVC,,0.04,0.0,WeatherDisplay:10.37,2013-04-30 03:03:00,
2013-04-29 23:08:00,58.9,49.9,30.03,SSE,162,6.5,10.0,72,0.00,OVC,,0.04,0.0,WeatherDisplay:10.37,2013-04-30 03:08:00,
2013-04-29 23:13:00,58.9,49.9,30.03,SSE,164,0.7,8.1,72,0.00,OVC,,0.04,0.0,WeatherDisplay:10.37,2013-04-30 03:13:00,
2013-04-29 23:18:00,58.9,50.3,30.03,SSE,160,5.9,12.0,73,0.00,OVC,,0.04,0.0,WeatherDisplay:10.37,2013-04-30 03:18:00,
2013-04-29 23:23:00,58.8,50.2,30.03,SSE,154,6.2,11.5,73,0.00,OVC,,0.04,0.0,WeatherDisplay:10.37,2013-04-30 03:23:00,
2013-04-29 23:28:00,58.8,50.2,30.02,SSE,155,5.6,10.4,73,0.00,OVC,,0.04,0.0,WeatherDisplay:10.37,2013-04-30 03:28:00,
2013-04-29 23:33:00,58.7,50.1,30.02,SSE,155,3.2,9.2,73,0.00,OVC,,0.04,0.0,WeatherDisplay:10.37,2013-04-30 03:33:00,
2013-04-29 23:38:00,58.7,50.1,30.02,SSE,154,1.9,7.0,73,0.00,OVC,,0.04,0.0,WeatherDisplay:10.37,2013-04-30 03:38:00,
2013-04-29 23:43:00,58.6,50.0,30.02,SSE,153,2.4,8.1,73,0.00,OVC,,0.04,0.0,WeatherDisplay:10.37,2013-04-30 03:43:00,
2013-04-29 23:48:00,58.6,50.0,30.02,SSE,155,1.5,3.5,73,0.00,OVC,,0.04,0.0,WeatherDisplay:10.37,2013-04-30 03:48:00,
2013-04-29 23:53:00,58.5,49.9,30.02,SSE,158,6.7,10.4,73,0.00,OVC,,0.04,0.0,WeatherDisplay:10.37,2013-04-30 03:53:00,
2013-04-29 23:58:00,58.5,50.2,30.02,SSE,161,4.9,9.2,74,0.00,OVC,,0.04,0.0,WeatherDisplay:10.37,2013-04-30 03:58:00,